Time,TemperatureF,DewpointF,PressureIn,WindDirection,WindDirectionDegrees,WindSpeedMPH,WindSpeedGustMPH,Humidity,HourlyPrecipIn,Conditions,Clouds,dailyrainin,SoftwareType,DateUTC
2013-02-10 00:01:00,41.0,40.0,29.59,SSE,155,9.0,14.0,96,0.06,,,0.06,,2013-02-10 06:01:00,
2013-02-10 00:11:00,41.0,40.0,29.59,SSE,155,9.0,14.0,96,0.06,,,0.06,,2013-02-10 06:11:00,
2013-02-10 00:21:00,41.0,40.0,29.58,SSE,168,8.0,14.0,96,0.06,,,0.06,,2013-02-10 06:21:00,
2013-02-10 00:32:00,42.0,41.0,29.58,South,191,8.0,17.0,96,0.06,,,0.06,,2013-02-10 06:32:00,
2013-02-10 00:42:00,42.0,41.0,29.58,South,191,8.0,17.0,96,0.06,,,0.06,,2013-02-10 06:42:00,
2013-02-10 00:51:00,42.0,41.0,29.58,South,191,8.0,17.0,96,0.06,,,0.06,,2013-02-10 06:51:00,
2013-02-10 01:01:00,42.0,41.0,29.57,South,171,9.0,16.0,96,0.00,,,0.06,,2013-02-10 07:01:00,
2013-02-10 01:11:00,42.0,41.0,29.57,South,171,9.0,16.0,96,0.00,,,0.06,,2013-02-10 07:11:00,
2013-02-10 01:21:00,42.0,41.0,29.55,SSE,167,10.0,19.0,96,0.00,,,0.06,,2013-02-10 07:21:00,
2013-02-10 01:31:00,42.0,41.0,29.55,SW,223,10.0,21.0,96,0.00,,,0.06,,2013-02-10 07:31:00,
2013-02-10 01:41:00,42.0,41.0,29.55,SW,223,10.0,21.0,96,0.00,,,0.06,,2013-02-10 07:41:00,
2013-02-10 01:51:00,42.0,41.0,29.54,SE,144,8.0,17.0,96,0.00,,,0.06,,2013-02-10 07:51:00,
2013-02-10 02:01:00,43.0,42.0,29.51,SE,126,9.0,17.0,96,0.00,,,0.06,,2013-02-10 08:01:00,
2013-02-10 02:11:00,43.0,42.0,29.51,SE,126,9.0,17.0,96,0.00,,,0.06,,2013-02-10 08:11:00,
2013-02-10 02:21:00,43.0,42.0,29.49,SSE,158,9.0,17.0,96,0.00,,,0.06,,2013-02-10 08:21:00,
2013-02-10 02:32:00,43.0,42.0,29.49,SW,219,9.0,18.0,96,0.00,,,0.06,,2013-02-10 08:32:00,
2013-02-10 02:43:00,43.0,42.0,29.49,SW,219,9.0,18.0,96,0.00,,,0.06,,2013-02-10 08:43:00,
2013-02-10 02:52:00,43.0,42.0,29.48,SSE,164,8.0,15.0,96,0.00,,,0.06,,2013-02-10 08:52:00,
2013-02-10 03:02:00,44.0,43.0,29.48,South,187,8.0,16.0,96,0.00,,,0.06,,2013-02-10 09:02:00,
2013-02-10 03:11:00,44.0,43.0,29.48,South,187,8.0,16.0,96,0.00,,,0.06,,2013-02-10 09:11:00,
2013-02-10 03:21:00,44.0,43.0,29.48,WSW,247,9.0,16.0,96,0.00,,,0.06,,2013-02-10 09:21:00,
2013-02-10 03:32:00,44.0,43.0,29.48,WSW,247,9.0,16.0,96,0.00,,,0.06,,2013-02-10 09:32:00,
2013-02-10 03:41:00,44.0,43.0,29.48,WSW,247,9.0,16.0,96,0.00,,,0.06,,2013-02-10 09:41:00,
2013-02-10 03:51:00,44.0,43.0,29.48,WSW,247,9.0,16.0,96,0.00,,,0.06,,2013-02-10 09:51:00,
2013-02-10 04:01:00,46.0,45.0,29.44,WSW,239,9.0,18.0,95,0.00,,,0.06,,2013-02-10 10:01:00,
2013-02-10 04:11:00,46.0,45.0,29.44,WSW,239,9.0,18.0,95,0.00,,,0.06,,2013-02-10 10:11:00,
2013-02-10 04:21:00,45.0,43.0,29.41,SSW,211,8.0,15.0,93,0.00,,,0.06,,2013-02-10 10:21:00,
2013-02-10 04:31:00,45.0,43.0,29.40,WSW,244,8.0,18.0,92,0.00,,,0.06,,2013-02-10 10:31:00,
2013-02-10 04:42:00,45.0,43.0,29.40,WSW,244,8.0,18.0,92,0.00,,,0.06,,2013-02-10 10:42:00,
2013-02-10 04:51:00,45.0,43.0,29.40,South,171,9.0,16.0,93,0.00,,,0.06,,2013-02-10 10:51:00,
2013-02-10 05:01:00,44.0,42.0,29.39,SW,225,8.0,16.0,93,0.00,,,0.06,,2013-02-10 11:01:00,
2013-02-10 05:11:00,44.0,42.0,29.39,SW,225,8.0,16.0,93,0.00,,,0.06,,2013-02-10 11:11:00,
2013-02-10 05:21:00,44.0,42.0,29.39,SW,217,9.0,16.0,94,0.00,,,0.06,,2013-02-10 11:21:00,
2013-02-10 05:32:00,44.0,42.0,29.39,SW,223,9.0,16.0,94,0.00,,,0.06,,2013-02-10 11:32:00,
2013-02-10 05:42:00,44.0,42.0,29.39,SW,223,9.0,16.0,94,0.00,,,0.06,,2013-02-10 11:42:00,
2013-02-10 05:52:00,44.0,42.0,29.38,SSW,212,10.0,17.0,92,0.01,,,0.07,,2013-02-10 11:52:00,
2013-02-10 06:02:00,44.0,41.0,29.39,WSW,243,10.0,19.0,90,0.01,,,0.07,,2013-02-10 12:02:00,
2013-02-10 06:12:00,44.0,41.0,29.39,WSW,243,10.0,19.0,90,0.01,,,0.07,,2013-02-10 12:12:00,
2013-02-10 06:21:00,44.0,41.0,29.39,SW,232,15.0,24.0,88,0.01,,,0.07,,2013-02-10 12:21:00,
2013-02-10 06:32:00,44.0,35.0,29.39,WSW,254,23.0,32.0,70,0.01,,,0.07,,2013-02-10 12:32:00,
2013-02-10 06:52:00,42.0,32.0,29.41,WSW,247,19.0,27.0,67,0.00,,,0.07,,2013-02-10 12:52:00,
2013-02-10 07:11:00,42.0,32.0,29.41,WSW,247,19.0,27.0,67,0.00,,,0.07,,2013-02-10 13:11:00,
2013-02-10 07:21:00,39.0,31.0,29.43,WSW,241,15.0,22.0,74,0.00,,,0.07,,2013-02-10 13:21:00,
2013-02-10 07:31:00,38.0,32.0,29.44,WSW,238,14.0,19.0,78,0.00,,,0.07,,2013-02-10 13:31:00,
2013-02-10 07:41:00,38.0,32.0,29.44,WSW,238,14.0,19.0,78,0.00,,,0.07,,2013-02-10 13:41:00,
2013-02-10 07:51:00,37.0,32.0,29.44,WSW,239,10.0,17.0,82,0.00,,,0.07,,2013-02-10 13:51:00,
2013-02-10 08:02:00,37.0,32.0,29.45,WNW,290,10.0,16.0,83,0.00,,,0.07,,2013-02-10 14:02:00,
2013-02-10 08:11:00,37.0,32.0,29.45,WNW,290,10.0,16.0,83,0.00,,,0.07,,2013-02-10 14:11:00,
2013-02-10 08:21:00,37.0,33.0,29.45,WSW,239,11.0,15.0,84,0.00,,,0.07,,2013-02-10 14:21:00,
2013-02-10 08:32:00,37.0,33.0,29.45,SW,223,10.0,15.0,84,0.00,,,0.07,,2013-02-10 14:32:00,
2013-02-10 08:41:00,37.0,33.0,29.45,SW,223,10.0,15.0,84,0.00,,,0.07,,2013-02-10 14:41:00,
2013-02-10 08:52:00,38.0,33.0,29.45,WSW,244,13.0,17.0,81,0.00,,,0.07,,2013-02-10 14:52:00,
2013-02-10 09:02:00,38.0,32.0,29.45,WSW,250,14.0,20.0,79,0.00,,,0.07,,2013-02-10 15:02:00,
2013-02-10 09:11:00,38.0,32.0,29.45,WSW,250,14.0,20.0,79,0.00,,,0.07,,2013-02-10 15:11:00,
2013-02-10 09:21:00,39.0,32.0,29.45,West,281,16.0,24.0,77,0.00,,,0.07,,2013-02-10 15:21:00,
2013-02-10 09:32:00,39.0,32.0,29.45,WSW,246,17.0,26.0,77,0.00,,,0.07,,2013-02-10 15:32:00,
2013-02-10 09:42:00,39.0,32.0,29.45,WSW,246,17.0,26.0,77,0.00,,,0.07,,2013-02-10 15:42:00,
2013-02-10 09:52:00,40.0,33.0,29.45,WSW,244,18.0,23.0,77,0.00,,,0.07,,2013-02-10 15:52:00,
2013-02-10 10:02:00,39.0,30.0,29.46,West,264,20.0,31.0,71,0.00,,,0.07,,2013-02-10 16:02:00,
2013-02-10 10:11:00,39.0,30.0,29.46,West,263,21.0,32.0,70,0.00,,,0.07,,2013-02-10 16:11:00,
2013-02-10 10:22:00,39.0,30.0,29.46,West,263,21.0,32.0,70,0.00,,,0.07,,2013-02-10 16:22:00,
2013-02-10 10:32:00,40.0,31.0,29.47,WSW,247,18.0,26.0,70,0.00,,,0.07,,2013-02-10 16:32:00,
2013-02-10 10:42:00,40.0,31.0,29.47,West,268,20.0,29.0,69,0.00,,,0.07,,2013-02-10 16:42:00,
2013-02-10 10:52:00,40.0,31.0,29.47,West,268,20.0,29.0,69,0.00,,,0.07,,2013-02-10 16:52:00,
2013-02-10 11:01:00,41.0,31.0,29.48,WSW,250,24.0,30.0,67,0.00,,,0.07,,2013-02-10 17:01:00,
2013-02-10 11:11:00,41.0,31.0,29.48,WSW,250,24.0,30.0,67,0.00,,,0.07,,2013-02-10 17:11:00,
2013-02-10 11:21:00,42.0,31.0,29.49,West,271,20.0,28.0,66,0.00,,,0.07,,2013-02-10 17:21:00,
2013-02-10 11:32:00,42.0,31.0,29.49,West,278,21.0,31.0,66,0.00,,,0.07,,2013-02-10 17:32:00,
2013-02-10 11:42:00,42.0,31.0,29.50,WNW,282,23.0,30.0,64,0.00,,,0.07,,2013-02-10 17:42:00,
2013-02-10 11:52:00,42.0,31.0,29.50,WNW,282,23.0,30.0,64,0.00,,,0.07,,2013-02-10 17:52:00,
2013-02-10 12:02:00,43.0,32.0,29.50,WSW,258,20.0,32.0,64,0.00,,,0.07,,2013-02-10 18:02:00,
2013-02-10 12:11:00,43.0,32.0,29.50,WSW,252,25.0,31.0,65,0.00,,,0.07,,2013-02-10 18:11:00,
2013-02-10 12:22:00,43.0,32.0,29.50,WSW,252,25.0,31.0,65,0.00,,,0.07,,2013-02-10 18:22:00,
2013-02-10 12:32:00,44.0,32.0,29.52,WSW,248,21.0,37.0,63,0.00,,,0.07,,2013-02-10 18:32:00,
2013-02-10 12:42:00,44.0,32.0,29.52,WSW,248,21.0,37.0,63,0.00,,,0.07,,2013-02-10 18:42:00,
2013-02-10 12:52:00,43.0,32.0,29.52,WSW,254,19.0,32.0,65,0.00,,,0.07,,2013-02-10 18:52:00,
2013-02-10 13:02:00,45.0,34.0,29.52,West,259,20.0,29.0,64,0.00,,,0.07,,2013-02-10 19:02:00,
2013-02-10 13:11:00,43.0,31.0,29.52,West,265,22.0,30.0,63,0.00,,,0.07,,2013-02-10 19:11:00,
2013-02-10 13:22:00,43.0,31.0,29.52,West,265,22.0,30.0,63,0.00,,,0.07,,2013-02-10 19:22:00,
2013-02-10 13:32:00,43.0,32.0,29.53,West,276,22.0,33.0,64,0.00,,,0.07,,2013-02-10 19:32:00,
2013-02-10 13:42:00,43.0,30.0,29.54,WSW,255,22.0,33.0,59,0.00,,,0.07,,2013-02-10 19:42:00,
2013-02-10 13:52:00,43.0,30.0,29.54,WSW,255,22.0,33.0,59,0.00,,,0.07,,2013-02-10 19:52:00,
2013-02-10 14:02:00,44.0,32.0,29.54,WSW,255,22.0,32.0,62,0.00,,,0.07,,2013-02-10 20:02:00,
2013-02-10 14:11:00,44.0,32.0,29.54,WSW,255,22.0,32.0,62,0.00,,,0.07,,2013-02-10 20:11:00,
2013-02-10 14:22:00,43.0,30.0,29.56,WSW,250,18.0,35.0,61,0.00,,,0.07,,2013-02-10 20:22:00,
2013-02-10 14:32:00,43.0,31.0,29.57,WSW,251,13.0,30.0,63,0.00,,,0.07,,2013-02-10 20:32:00,
2013-02-10 14:42:00,42.0,30.0,29.59,SW,236,20.0,31.0,62,0.00,,,0.07,,2013-02-10 20:42:00,
2013-02-10 14:52:00,42.0,30.0,29.59,SW,236,20.0,31.0,62,0.00,,,0.07,,2013-02-10 20:52:00,
2013-02-10 15:02:00,42.0,30.0,29.59,WSW,249,20.0,34.0,63,0.00,,,0.07,,2013-02-10 21:02:00,
2013-02-10 15:11:00,42.0,30.0,29.59,WSW,249,20.0,34.0,63,0.00,,,0.07,,2013-02-10 21:11:00,
2013-02-10 15:21:00,42.0,30.0,29.60,WSW,257,19.0,31.0,62,0.00,,,0.07,,2013-02-10 21:21:00,
2013-02-10 15:32:00,41.0,29.0,29.62,WSW,252,12.0,29.0,62,0.00,,,0.07,,2013-02-10 21:32:00,
2013-02-10 15:42:00,41.0,29.0,29.63,SW,232,18.0,28.0,62,0.00,,,0.07,,2013-02-10 21:42:00,
2013-02-10 15:51:00,41.0,29.0,29.63,SW,232,18.0,28.0,62,0.00,,,0.07,,2013-02-10 21:51:00,
2013-02-10 16:02:00,41.0,29.0,29.65,South,175,11.0,20.0,62,0.00,,,0.07,,2013-02-10 22:02:00,
2013-02-10 16:11:00,41.0,29.0,29.65,WSW,250,14.0,24.0,63,0.00,,,0.07,,2013-02-10 22:11:00,
2013-02-10 16:21:00,41.0,29.0,29.65,WSW,250,14.0,24.0,63,0.00,,,0.07,,2013-02-10 22:21:00,
2013-02-10 16:32:00,41.0,29.0,29.67,SW,223,6.0,27.0,63,0.00,,,0.07,,2013-02-10 22:32:00,
2013-02-10 16:42:00,41.0,29.0,29.69,West,267,12.0,25.0,63,0.00,,,0.07,,2013-02-10 22:42:00,
2013-02-10 16:52:00,41.0,29.0,29.69,West,267,12.0,25.0,63,0.00,,,0.07,,2013-02-10 22:52:00,
2013-02-10 17:02:00,41.0,29.0,29.70,WSW,254,10.0,21.0,63,0.00,,,0.07,,2013-02-10 23:02:00,
2013-02-10 17:11:00,41.0,29.0,29.70,WSW,254,10.0,21.0,63,0.00,,,0.07,,2013-02-10 23:11:00,
2013-02-10 17:22:00,41.0,29.0,29.71,South,170,9.0,19.0,63,0.00,,,0.07,,2013-02-10 23:22:00,
2013-02-10 17:32:00,40.0,28.0,29.72,ENE,61,7.0,14.0,63,0.00,,,0.07,,2013-02-10 23:32:00,
2013-02-10 17:42:00,40.0,29.0,29.74,SSW,200,8.0,18.0,64,0.00,,,0.07,,2013-02-10 23:42:00,
2013-02-10 17:52:00,40.0,29.0,29.74,SSW,200,8.0,18.0,64,0.00,,,0.07,,2013-02-10 23:52:00,
2013-02-10 18:02:00,40.0,28.0,29.76,East,90,8.0,22.0,62,0.00,,,0.07,,2013-02-11 00:02:00,
2013-02-10 18:11:00,40.0,28.0,29.76,East,90,8.0,22.0,62,0.00,,,0.07,,2013-02-11 00:11:00,
2013-02-10 18:22:00,40.0,28.0,29.76,East,90,8.0,22.0,62,0.00,,,0.07,,2013-02-11 00:22:00,
2013-02-10 18:32:00,39.0,27.0,29.78,ESE,104,5.0,11.0,63,0.00,,,0.07,,2013-02-11 00:32:00,
2013-02-10 18:42:00,39.0,27.0,29.78,ESE,104,5.0,11.0,63,0.00,,,0.07,,2013-02-11 00:42:00,
2013-02-10 18:52:00,39.0,27.0,29.79,SE,142,4.0,9.0,63,0.00,,,0.07,,2013-02-11 00:52:00,
2013-02-10 19:01:00,39.0,28.0,29.80,SW,229,5.0,12.0,64,0.00,,,0.07,,2013-02-11 01:01:00,
2013-02-10 19:11:00,39.0,28.0,29.80,SW,229,5.0,12.0,64,0.00,,,0.07,,2013-02-11 01:11:00,
2013-02-10 19:21:00,39.0,29.0,29.82,West,266,7.0,14.0,67,0.00,,,0.07,,2013-02-11 01:21:00,
2013-02-10 19:32:00,38.0,29.0,29.83,West,265,9.0,15.0,70,0.00,,,0.07,,2013-02-11 01:32:00,
2013-02-10 19:41:00,38.0,30.0,29.84,East,88,10.0,17.0,72,0.00,,,0.07,,2013-02-11 01:41:00,
2013-02-10 19:52:00,38.0,30.0,29.84,East,88,10.0,17.0,72,0.00,,,0.07,,2013-02-11 01:52:00,
2013-02-10 20:01:00,38.0,29.0,29.85,NW,313,5.0,17.0,71,0.00,,,0.07,,2013-02-11 02:01:00,
2013-02-10 20:11:00,38.0,29.0,29.85,NW,313,5.0,17.0,71,0.00,,,0.07,,2013-02-11 02:11:00,
2013-02-10 20:21:00,38.0,29.0,29.86,NNE,23,8.0,17.0,70,0.00,,,0.07,,2013-02-11 02:21:00,
2013-02-10 20:31:00,38.0,28.0,29.87,SSW,207,7.0,17.0,68,0.00,,,0.07,,2013-02-11 02:31:00,
2013-02-10 20:42:00,38.0,28.0,29.88,WSW,244,8.0,19.0,68,0.00,,,0.07,,2013-02-11 02:42:00,
2013-02-10 20:52:00,38.0,28.0,29.88,WSW,244,8.0,19.0,68,0.00,,,0.07,,2013-02-11 02:52:00,
2013-02-10 21:02:00,37.0,28.0,29.89,WSW,244,8.0,13.0,69,0.00,,,0.07,,2013-02-11 03:02:00,
2013-02-10 21:11:00,37.0,28.0,29.89,WSW,244,8.0,13.0,69,0.00,,,0.07,,2013-02-11 03:11:00,
2013-02-10 21:21:00,37.0,27.0,29.91,WSW,254,8.0,14.0,68,0.00,,,0.07,,2013-02-11 03:21:00,
2013-02-10 21:31:00,37.0,28.0,29.91,WSW,254,9.0,15.0,69,0.00,,,0.07,,2013-02-11 03:31:00,
2013-02-10 21:42:00,37.0,28.0,29.91,WSW,254,9.0,15.0,69,0.00,,,0.07,,2013-02-11 03:42:00,
2013-02-10 21:52:00,37.0,28.0,29.91,WSW,254,9.0,15.0,69,0.00,,,0.07,,2013-02-11 03:52:00,
2013-02-10 22:01:00,37.0,27.0,29.93,WSW,243,11.0,18.0,67,0.00,,,0.07,,2013-02-11 04:01:00,
2013-02-10 22:11:00,37.0,27.0,29.93,WSW,243,11.0,18.0,67,0.00,,,0.07,,2013-02-11 04:11:00,
2013-02-10 22:21:00,37.0,27.0,29.94,ESE,105,5.0,16.0,67,0.00,,,0.07,,2013-02-11 04:21:00,
2013-02-10 22:32:00,36.0,26.0,29.95,South,171,7.0,13.0,68,0.00,,,0.07,,2013-02-11 04:32:00,
2013-02-10 22:42:00,36.0,26.0,29.95,South,171,7.0,13.0,68,0.00,,,0.07,,2013-02-11 04:42:00,
2013-02-10 22:51:00,36.0,26.0,29.96,WNW,298,7.0,13.0,68,0.00,,,0.07,,2013-02-11 04:51:00,
2013-02-10 23:01:00,35.0,26.0,29.96,SW,233,5.0,15.0,69,0.00,,,0.07,,2013-02-11 05:01:00,
2013-02-10 23:12:00,35.0,26.0,29.97,West,267,7.0,12.0,70,0.00,,,0.07,,2013-02-11 05:12:00,
2013-02-10 23:22:00,35.0,26.0,29.97,West,267,7.0,12.0,70,0.00,,,0.07,,2013-02-11 05:22:00,
2013-02-10 23:32:00,34.0,26.0,29.98,WSW,257,8.0,12.0,73,0.00,,,0.07,,2013-02-11 05:32:00,
2013-02-10 23:42:00,34.0,26.0,29.98,WSW,257,8.0,12.0,73,0.00,,,0.07,,2013-02-11 05:42:00,
2013-02-10 23:52:00,34.0,26.0,29.98,West,263,7.0,16.0,72,0.00,,,0.07,,2013-02-11 05:52:00,